createdAt,value
2023-02-13T06:02:33.155Z,2.90
2023-02-13T06:07:37.247Z,2.90
2023-02-13T06:12:40.841Z,2.90
2023-02-13T06:17:45.862Z,2.80
2023-02-13T06:22:50.393Z,2.90
2023-02-13T06:27:54.057Z,3.00
2023-02-13T06:32:59.160Z,2.90
2023-02-13T06:38:02.932Z,3.00
2023-02-13T06:43:06.563Z,2.90
2023-02-13T06:48:11.629Z,2.80
2023-02-13T06:53:15.370Z,2.90
2023-02-13T06:58:19.783Z,2.90
2023-02-13T07:03:24.768Z,3.00
2023-02-13T07:08:28.636Z,2.90
2023-02-13T07:13:32.616Z,3.00
2023-02-13T07:18:38.589Z,3.10
2023-02-13T07:23:42.394Z,3.10
2023-02-13T07:28:46.319Z,3.00
2023-02-13T07:33:51.198Z,3.00
2023-02-13T07:38:54.967Z,3.20
2023-02-13T07:43:58.726Z,3.20
2023-02-13T07:49:06.049Z,3.20
2023-02-13T07:54:10.212Z,3.30
2023-02-13T07:59:14.046Z,3.40
2023-02-13T08:04:19.313Z,3.50
2023-02-13T08:09:40.966Z,3.60
2023-02-13T08:14:44.847Z,3.70
2023-02-13T08:19:49.974Z,3.70
2023-02-13T08:24:53.649Z,3.90
2023-02-13T08:29:57.775Z,4.00
2023-02-13T08:35:02.923Z,4.10
2023-02-13T08:40:10.490Z,4.20
2023-02-13T08:45:14.121Z,4.40
2023-02-13T08:50:19.479Z,4.40
2023-02-13T08:55:23.301Z,4.50
2023-02-13T09:00:26.973Z,4.60
2023-02-13T09:05:33.059Z,4.70
2023-02-13T09:10:36.838Z,4.80
2023-02-13T09:15:41.290Z,4.80
2023-02-13T09:20:46.436Z,4.80
2023-02-13T09:25:50.098Z,5.10
2023-02-13T09:30:53.928Z,5.30
2023-02-13T09:35:59.220Z,5.40
2023-02-13T09:41:07.625Z,5.50
2023-02-13T09:46:16.754Z,5.60
2023-02-13T09:51:23.793Z,5.80
2023-02-13T09:56:40.355Z,6.00
2023-02-13T10:01:48.971Z,6.20
2023-02-13T10:06:59.902Z,6.70
2023-02-13T10:12:27.226Z,7.20
2023-02-13T10:17:36.891Z,8.00
2023-02-13T10:22:45.721Z,8.60
2023-02-13T10:27:53.151Z,8.70
2023-02-13T10:33:19.958Z,8.90
2023-02-13T10:38:25.840Z,9.60
2023-02-13T10:43:35.481Z,10.30
2023-02-13T10:49:03.003Z,10.90
2023-02-13T10:54:35.135Z,11.60
2023-02-13T10:59:54.104Z,12.40
2023-02-13T11:05:02.229Z,13.20
2023-02-13T11:10:17.942Z,13.60
2023-02-13T11:15:25.726Z,14.10
2023-02-13T11:20:36.514Z,14.70
2023-02-13T11:25:41.713Z,15.00
2023-02-13T11:30:45.618Z,15.40
2023-02-13T11:35:49.589Z,15.90
2023-02-13T11:41:07.772Z,16.80
2023-02-13T11:46:19.612Z,16.80
2023-02-13T11:51:37.427Z,17.50
2023-02-13T11:57:03.720Z,18.20
2023-02-13T12:02:16.501Z,18.70
2023-02-13T12:07:26.588Z,18.80
2023-02-13T12:12:40.420Z,19.70
2023-02-13T12:17:46.687Z,19.70
2023-02-13T12:23:02.445Z,20.30
2023-02-13T12:28:14.205Z,20.60
2023-02-13T12:33:36.824Z,21.00
2023-02-13T12:38:54.128Z,18.60
2023-02-13T12:44:45.975Z,21.10
2023-02-13T12:50:25.001Z,21.50
2023-02-13T12:55:44.131Z,22.10
2023-02-13T13:00:58.882Z,22.60
2023-02-13T13:06:19.709Z,23.00
2023-02-13T13:11:45.572Z,23.30
2023-02-13T13:16:57.656Z,23.20
2023-02-13T13:22:06.777Z,23.00
2023-02-13T13:27:19.349Z,23.20
2023-02-13T13:32:25.455Z,23.30
2023-02-13T13:37:36.299Z,23.30
2023-02-13T13:42:44.286Z,23.20
2023-02-13T13:48:01.789Z,23.10
2023-02-13T13:53:11.906Z,22.70
2023-02-13T13:58:23.583Z,22.40
2023-02-13T14:03:37.449Z,22.40
2023-02-13T14:09:03.824Z,22.50
2023-02-13T14:14:53.763Z,22.20
2023-02-13T14:19:59.509Z,22.00
2023-02-13T14:25:06.582Z,21.70
2023-02-13T14:30:29.328Z,21.80
2023-02-13T14:35:38.078Z,21.90
2023-02-13T14:40:51.097Z,21.90
2023-02-13T14:45:57.781Z,21.60
2023-02-13T14:51:04.406Z,21.20
2023-02-13T14:56:12.994Z,21.20
2023-02-13T15:01:26.121Z,21.10
2023-02-13T15:06:34.500Z,20.80
2023-02-13T15:11:40.104Z,20.40
2023-02-13T15:16:44.819Z,20.00
2023-02-13T15:21:53.354Z,19.60
2023-02-13T15:27:02.472Z,19.30
2023-02-13T15:32:21.720Z,19.10
2023-02-13T15:37:30.323Z,18.70
2023-02-13T15:42:34.249Z,18.50
2023-02-13T15:47:38.579Z,18.20
2023-02-13T15:52:43.749Z,17.70
2023-02-13T15:57:48.166Z,17.60
2023-02-13T16:02:53.980Z,17.30
2023-02-13T16:08:01.477Z,17.20
2023-02-13T16:13:07.421Z,17.20
2023-02-13T16:18:21.157Z,17.10
2023-02-13T16:23:26.219Z,16.60
2023-02-13T16:28:32.784Z,16.50
2023-02-13T16:33:38.964Z,16.50
2023-02-13T16:38:45.793Z,16.30
2023-02-13T16:43:51.752Z,16.20
2023-02-13T16:49:16.267Z,16.10
2023-02-13T16:54:26.516Z,16.00
2023-02-13T16:59:34.737Z,15.90
2023-02-13T17:04:39.318Z,15.90
2023-02-13T17:09:44.478Z,15.80
2023-02-13T17:14:48.548Z,15.70
2023-02-13T17:19:52.356Z,15.20
2023-02-13T17:24:57.569Z,15.20
2023-02-13T17:30:01.360Z,15.20
2023-02-13T17:35:05.382Z,15.10
2023-02-13T17:40:17.429Z,14.80
2023-02-13T17:45:23.932Z,14.60
2023-02-13T17:50:28.096Z,14.30
2023-02-13T17:55:35.101Z,14.20
2023-02-13T18:00:38.718Z,14.00
2023-02-13T18:10:47.870Z,13.70
2023-02-13T18:15:52.278Z,13.40
2023-02-13T18:20:56.576Z,13.20
2023-02-13T18:26:10.132Z,12.90
2023-02-13T18:36:18.113Z,12.40
2023-02-13T18:41:23.206Z,12.10
2023-02-13T18:46:26.919Z,11.90
2023-02-13T18:51:31.057Z,11.60
2023-02-13T18:56:36.144Z,11.30
2023-02-13T19:01:40.080Z,11.20
2023-02-13T19:06:44.885Z,11.00
2023-02-13T19:11:49.968Z,10.90
2023-02-13T19:21:57.794Z,10.70
2023-02-13T19:27:03.399Z,10.60
2023-02-13T19:32:07.308Z,10.50
2023-02-13T19:37:11.013Z,10.30
2023-02-13T19:42:16.319Z,10.20
2023-02-13T19:47:19.960Z,10.10
2023-02-13T19:52:24.173Z,9.90
2023-02-13T19:57:29.528Z,9.70
2023-02-13T20:07:37.296Z,9.50
2023-02-13T20:12:42.276Z,9.40
2023-02-13T20:17:45.958Z,9.30
2023-02-13T20:22:50.123Z,9.30
2023-02-13T20:27:55.239Z,9.20
2023-02-13T20:32:59.408Z,9.10
2023-02-13T20:43:08.550Z,8.90
2023-02-13T20:48:12.161Z,8.70
2023-02-13T20:53:15.876Z,8.60
2023-02-13T20:58:20.960Z,8.50
2023-02-13T21:03:24.652Z,8.50
2023-02-13T21:08:28.279Z,8.40
2023-02-13T21:13:33.963Z,8.20
2023-02-13T21:18:38.226Z,8.00
2023-02-13T21:23:42.174Z,7.90
2023-02-13T21:28:49.279Z,7.80
2023-02-13T21:33:53.257Z,7.70
2023-02-13T21:38:56.990Z,7.60
2023-02-13T21:44:02.226Z,7.60
2023-02-13T21:49:08.308Z,7.60
2023-02-13T21:54:13.164Z,7.60
2023-02-13T21:59:19.036Z,7.40
2023-02-13T22:04:22.789Z,7.40
2023-02-13T22:09:27.645Z,7.40
2023-02-13T22:14:32.690Z,7.40
2023-02-13T22:19:36.360Z,7.30
2023-02-13T22:24:39.988Z,7.30
2023-02-13T22:29:44.992Z,7.30
2023-02-13T22:34:49.772Z,7.20
2023-02-13T22:39:53.381Z,7.10
2023-02-13T22:44:58.312Z,7.10
2023-02-13T22:50:02.411Z,7.00
2023-02-13T22:55:06.646Z,6.90
2023-02-13T23:00:14.031Z,6.90
2023-02-13T23:05:18.234Z,6.80
2023-02-13T23:10:25.906Z,6.70
2023-02-13T23:15:34.508Z,6.70
2023-02-13T23:20:38.411Z,6.60
2023-02-13T23:25:42.087Z,6.60
